»·PEaware :: WAT348 KSEA-KEUG

WAT348 :: KSEA-KEUG

FLIGHT INFORMATION

Flight Status: Arrived
Operator:
Walker Air Transport
More flights by this operator :: More flights under this callsign
Pilot: Austin W. (7615)
Aircraft: BOEING 727-200
(B722)
More flights by this aircraft type
Origin: KSEA Seattle-Tacoma Intl
United States
Destination: KEUG Mahlon Sweet
United States
More flights between these airports :: More routes between these airports
Route: ELMAA3 ELMAA CVO
File this flight plan on PilotEdge
Remarks:
Altitude:
(Current/Filed)
21,000ft
Speed:
(Current/Filed)
456kts
Departed: 20-Feb-21 01:20 PM
Arrived: 20-Feb-21 02:13 PM
Distance/Time
Traveled:
203nm/0:53
Distance/Time
To Go:
Arrived

Flight Plot

Page will automatically refresh every two minutes.

Flight plan parsing failed; only flown route is shown


Map Options




Map Legend


Flown Route
Filed Route
Departure Airport
Arrival Airport
Navaid (VOR, NDB)
Fix

Horizontal Profiles

Position Reports

Time Latitude Longitude Heading Altitude Ground
Speed
20-Feb-21 12:53 47.447382 -122.301554 339 438ft 0kts
20-Feb-21 12:54 47.447382 -122.301554 339 438ft 0kts
20-Feb-21 12:55 47.447382 -122.301554 339 438ft 0kts
20-Feb-21 12:56 47.447382 -122.301554 339 438ft 0kts
20-Feb-21 12:57 47.447382 -122.301554 339 438ft 0kts
20-Feb-21 12:58 47.447382 -122.301554 339 438ft 0kts
20-Feb-21 12:59 47.447382 -122.301554 339 438ft 0kts
20-Feb-21 13:00 47.447382 -122.301554 339 438ft 0kts
20-Feb-21 13:01 47.447382 -122.301554 339 438ft 0kts
20-Feb-21 13:02 47.447382 -122.301554 339 438ft 0kts
20-Feb-21 13:03 47.447382 -122.301554 339 438ft 0kts
20-Feb-21 13:04 47.447382 -122.301554 339 438ft 0kts
20-Feb-21 13:05 47.447382 -122.301554 339 438ft 0kts
20-Feb-21 13:06 47.447382 -122.301554 339 438ft 0kts
20-Feb-21 13:07 47.447382 -122.301554 339 438ft 0kts
20-Feb-21 13:08 47.447382 -122.301554 339 438ft 0kts
20-Feb-21 13:09 47.447382 -122.301554 339 438ft 0kts
20-Feb-21 13:10 47.447055 -122.301370 339 438ft 2kts
20-Feb-21 13:11 47.446891 -122.301278 339 438ft 0kts
20-Feb-21 13:12 47.446891 -122.301278 339 438ft 0kts
20-Feb-21 13:13 47.446891 -122.301278 339 438ft 0kts
20-Feb-21 13:14 47.446891 -122.301278 339 438ft 0kts
20-Feb-21 13:15 47.447801 -122.304027 282 438ft 14kts
20-Feb-21 13:16 47.447838 -122.305016 270 438ft 8kts
20-Feb-21 13:17 47.452491 -122.306261 1 438ft 25kts
20-Feb-21 13:18 47.460670 -122.306179 1 438ft 31kts
20-Feb-21 13:19 47.461900 -122.307805 180 438ft 46kts
20-Feb-21 13:20 47.421685 -122.307827 182 2592ft 175kts
20-Feb-21 13:21 47.367454 -122.304080 184 5699ft 216kts
20-Feb-21 13:22 47.313231 -122.340039 258 7627ft 251kts
20-Feb-21 13:23 47.303816 -122.444362 266 10557ft 263kts
20-Feb-21 13:24 47.294545 -122.560850 267 12909ft 308kts
20-Feb-21 13:25 47.281948 -122.691587 266 15124ft 346kts
20-Feb-21 13:26 47.265494 -122.833248 266 17880ft 357kts
20-Feb-21 13:27 47.243128 -122.977995 260 20132ft 376kts
20-Feb-21 13:28 47.214529 -123.126996 264 21234ft 380kts
20-Feb-21 13:29 47.179562 -123.278382 237 21346ft 427kts
20-Feb-21 13:30 47.058978 -123.321329 174 21342ft 493kts
20-Feb-21 13:31 46.921118 -123.291283 175 21328ft 502kts
20-Feb-21 13:32 46.783562 -123.269171 178 21370ft 491kts
20-Feb-21 13:33 46.648407 -123.257339 181 21406ft 482kts
20-Feb-21 13:34 46.514374 -123.254011 184 21401ft 476kts
20-Feb-21 13:35 46.382773 -123.254983 184 21402ft 473kts
20-Feb-21 13:36 46.251677 -123.255287 181 21400ft 470kts
20-Feb-21 13:37 46.121079 -123.241262 180 21416ft 468kts
20-Feb-21 13:38 45.991566 -123.237656 185 21421ft 465kts
20-Feb-21 13:39 45.862277 -123.247954 189 21417ft 462kts
20-Feb-21 13:40 45.735299 -123.266057 190 21420ft 459kts
20-Feb-21 13:41 45.608224 -123.281372 187 21416ft 446kts
20-Feb-21 13:42 45.487185 -123.284317 183 20291ft 424kts
20-Feb-21 13:43 45.369780 -123.277485 180 18718ft 413kts
20-Feb-21 13:44 45.254217 -123.269779 182 17218ft 399kts
20-Feb-21 13:45 45.140785 -123.270118 186 15755ft 383kts
20-Feb-21 13:46 45.035704 -123.277959 188 14175ft 370kts
20-Feb-21 13:47 44.934432 -123.285459 186 12871ft 359kts
20-Feb-21 13:48 44.833218 -123.287521 183 11531ft 347kts
20-Feb-21 13:49 44.735604 -123.287825 184 10498ft 324kts
20-Feb-21 13:50 44.644751 -123.289609 185 10057ft 296kts
20-Feb-21 13:51 44.563902 -123.291988 184 9990ft 296kts
20-Feb-21 13:52 44.479302 -123.294781 190 9576ft 292kts
20-Feb-21 13:53 44.402422 -123.316072 195 7117ft 279kts
20-Feb-21 13:54 44.328134 -123.339850 191 6005ft 249kts
20-Feb-21 13:55 44.260743 -123.365709 214 6001ft 245kts
20-Feb-21 13:56 44.202698 -123.416381 216 5998ft 239kts
20-Feb-21 13:57 44.145853 -123.466490 215 5998ft 235kts
20-Feb-21 13:58 44.090663 -123.514914 216 5998ft 230kts
20-Feb-21 13:59 44.030414 -123.550073 177 5995ft 233kts
20-Feb-21 14:00 43.971807 -123.510950 130 5997ft 231kts
20-Feb-21 14:01 43.939995 -123.435130 108 5982ft 207kts
20-Feb-21 14:02 43.926371 -123.360978 104 5019ft 196kts
20-Feb-21 14:03 43.901523 -123.293262 120 3950ft 197kts
20-Feb-21 14:04 43.879343 -123.225101 97 2955ft 188kts
20-Feb-21 14:05 43.903198 -123.184029 357 3046ft 188kts
20-Feb-21 14:06 43.953211 -123.188217 351 2662ft 160kts
20-Feb-21 14:07 43.994652 -123.197154 347 2158ft 143kts
20-Feb-21 14:08 44.032733 -123.206023 350 1766ft 134kts
20-Feb-21 14:09 44.068038 -123.212952 349 1457ft 128kts
20-Feb-21 14:10 44.103410 -123.218485 355 657ft 128kts
20-Feb-21 14:11 44.130983 -123.219098 0 366ft 49kts
20-Feb-21 14:12 44.134627 -123.217738 88 363ft 0kts
20-Feb-21 14:14 44.132531 -123.217187 180 364ft 21kts
20-Feb-21 14:15 44.125756 -123.217091 179 369ft 27kts
20-Feb-21 14:16 44.120988 -123.214544 181 374ft 6kts
20-Feb-21 14:17 44.120270 -123.214327 163 374ft 0kts
20-Feb-21 14:18 44.120271 -123.214327 163 374ft 0kts
20-Feb-21 14:19 44.120271 -123.214327 163 374ft 0kts
20-Feb-21 14:20 44.120271 -123.214327 163 374ft 0kts
20-Feb-21 14:21 44.120271 -123.214327 163 374ft 0kts

Navigation Log

Ident Type
Flight plan parsing failed, navigation log unavailable